sensor_id;sensor_type;location;lat;lon;timestamp;temperature;humidity
11848;DHT22;5983;49.966;8.052;2023-06-10T00:02:15;22.00;94.60
11848;DHT22;5983;49.966;8.052;2023-06-10T00:04:42;22.00;94.70
11848;DHT22;5983;49.966;8.052;2023-06-10T00:07:09;22.00;94.90
11848;DHT22;5983;49.966;8.052;2023-06-10T00:09:36;22.00;94.90
11848;DHT22;5983;49.966;8.052;2023-06-10T00:12:05;22.00;95.00
11848;DHT22;5983;49.966;8.052;2023-06-10T00:14:36;21.90;95.10
11848;DHT22;5983;49.966;8.052;2023-06-10T00:17:04;21.90;95.20
11848;DHT22;5983;49.966;8.052;2023-06-10T00:19:35;21.90;95.30
11848;DHT22;5983;49.966;8.052;2023-06-10T00:22:02;21.90;95.40
11848;DHT22;5983;49.966;8.052;2023-06-10T00:24:30;21.80;95.60
11848;DHT22;5983;49.966;8.052;2023-06-10T00:26:57;21.80;95.50
11848;DHT22;5983;49.966;8.052;2023-06-10T00:29:24;21.80;95.50
11848;DHT22;5983;49.966;8.052;2023-06-10T00:31:52;21.80;95.60
11848;DHT22;5983;49.966;8.052;2023-06-10T00:34:23;21.80;95.70
11848;DHT22;5983;49.966;8.052;2023-06-10T00:36:50;21.80;95.80
11848;DHT22;5983;49.966;8.052;2023-06-10T00:39:17;21.80;95.90
11848;DHT22;5983;49.966;8.052;2023-06-10T00:41:44;21.70;95.90
11848;DHT22;5983;49.966;8.052;2023-06-10T00:44:11;21.70;96.10
11848;DHT22;5983;49.966;8.052;2023-06-10T00:46:38;21.70;96.10
11848;DHT22;5983;49.966;8.052;2023-06-10T00:49:07;21.70;96.20
11848;DHT22;5983;49.966;8.052;2023-06-10T00:51:34;21.70;96.40
11848;DHT22;5983;49.966;8.052;2023-06-10T00:54:02;21.60;96.70
11848;DHT22;5983;49.966;8.052;2023-06-10T00:56:29;21.60;97.30
11848;DHT22;5983;49.966;8.052;2023-06-10T00:58:57;21.60;97.80
11848;DHT22;5983;49.966;8.052;2023-06-10T01:01:24;21.50;98.40
11848;DHT22;5983;49.966;8.052;2023-06-10T01:03:52;21.40;98.60
11848;DHT22;5983;49.966;8.052;2023-06-10T01:06:36;21.40;99.00
11848;DHT22;5983;49.966;8.052;2023-06-10T01:09:21;21.30;99.40
11848;DHT22;5983;49.966;8.052;2023-06-10T01:11:58;21.20;99.70
11848;DHT22;5983;49.966;8.052;2023-06-10T01:14:29;21.10;99.90
11848;DHT22;5983;49.966;8.052;2023-06-10T01:16:58;21.00;99.90
11848;DHT22;5983;49.966;8.052;2023-06-10T01:19:25;20.80;99.90
11848;DHT22;5983;49.966;8.052;2023-06-10T01:21:55;20.80;99.90
11848;DHT22;5983;49.966;8.052;2023-06-10T01:24:22;20.70;99.90
11848;DHT22;5983;49.966;8.052;2023-06-10T01:26:50;20.60;99.90
11848;DHT22;5983;49.966;8.052;2023-06-10T01:29:23;20.50;99.90
11848;DHT22;5983;49.966;8.052;2023-06-10T01:32:03;20.40;99.90
11848;DHT22;5983;49.966;8.052;2023-06-10T01:34:35;20.30;99.90
11848;DHT22;5983;49.966;8.052;2023-06-10T01:37:06;20.20;99.90
11848;DHT22;5983;49.966;8.052;2023-06-10T01:39:35;20.10;99.90
11848;DHT22;5983;49.966;8.052;2023-06-10T01:42:03;20.00;99.90
11848;DHT22;5983;49.966;8.052;2023-06-10T01:44:32;20.00;99.90
11848;DHT22;5983;49.966;8.052;2023-06-10T01:46:59;19.90;99.90
11848;DHT22;5983;49.966;8.052;2023-06-10T01:49:26;19.80;99.90
11848;DHT22;5983;49.966;8.052;2023-06-10T01:51:54;19.70;99.90
11848;DHT22;5983;49.966;8.052;2023-06-10T01:54:22;19.70;99.90
11848;DHT22;5983;49.966;8.052;2023-06-10T01:56:49;19.60;99.90
11848;DHT22;5983;49.966;8.052;2023-06-10T01:59:16;19.60;99.90
11848;DHT22;5983;49.966;8.052;2023-06-10T02:01:43;19.60;99.90
11848;DHT22;5983;49.966;8.052;2023-06-10T02:04:10;19.50;99.90
11848;DHT22;5983;49.966;8.052;2023-06-10T02:06:36;19.50;99.90
11848;DHT22;5983;49.966;8.052;2023-06-10T02:09:03;19.40;99.90
11848;DHT22;5983;49.966;8.052;2023-06-10T02:11:32;19.40;99.90
11848;DHT22;5983;49.966;8.052;2023-06-10T02:13:59;19.30;99.90
11848;DHT22;5983;49.966;8.052;2023-06-10T02:16:25;19.30;99.90
11848;DHT22;5983;49.966;8.052;2023-06-10T02:18:53;19.20;99.90
11848;DHT22;5983;49.966;8.052;2023-06-10T02:21:20;19.10;99.90
11848;DHT22;5983;49.966;8.052;2023-06-10T02:23:47;19.10;99.90
11848;DHT22;5983;49.966;8.052;2023-06-10T02:26:14;19.00;99.90
11848;DHT22;5983;49.966;8.052;2023-06-10T02:28:44;18.90;99.90
11848;DHT22;5983;49.966;8.052;2023-06-10T02:31:11;18.80;99.90
11848;DHT22;5983;49.966;8.052;2023-06-10T02:33:38;18.80;99.90
11848;DHT22;5983;49.966;8.052;2023-06-10T02:36:05;18.70;99.90
11848;DHT22;5983;49.966;8.052;2023-06-10T02:38:33;18.60;99.90
11848;DHT22;5983;49.966;8.052;2023-06-10T02:41:00;18.60;99.90
11848;DHT22;5983;49.966;8.052;2023-06-10T02:43:27;18.50;99.90
11848;DHT22;5983;49.966;8.052;2023-06-10T02:45:56;18.40;99.90
11848;DHT22;5983;49.966;8.052;2023-06-10T02:48:23;18.40;99.90
11848;DHT22;5983;49.966;8.052;2023-06-10T02:50:51;18.30;99.90
11848;DHT22;5983;49.966;8.052;2023-06-10T02:53:18;18.30;99.90
11848;DHT22;5983;49.966;8.052;2023-06-10T02:55:45;18.30;99.90
11848;DHT22;5983;49.966;8.052;2023-06-10T02:58:12;18.20;99.90
11848;DHT22;5983;49.966;8.052;2023-06-10T03:00:39;18.20;99.90
11848;DHT22;5983;49.966;8.052;2023-06-10T03:03:08;18.20;99.90
11848;DHT22;5983;49.966;8.052;2023-06-10T03:05:36;18.20;99.90
11848;DHT22;5983;49.966;8.052;2023-06-10T03:08:03;18.20;99.90
11848;DHT22;5983;49.966;8.052;2023-06-10T03:10:30;18.20;99.90
11848;DHT22;5983;49.966;8.052;2023-06-10T03:12:58;18.20;99.90
11848;DHT22;5983;49.966;8.052;2023-06-10T03:15:25;18.10;99.90
11848;DHT22;5983;49.966;8.052;2023-06-10T03:17:54;18.10;99.90
11848;DHT22;5983;49.966;8.052;2023-06-10T03:20:22;18.00;99.90
11848;DHT22;5983;49.966;8.052;2023-06-10T03:22:51;18.00;99.90
11848;DHT22;5983;49.966;8.052;2023-06-10T03:25:18;17.90;99.90
11848;DHT22;5983;49.966;8.052;2023-06-10T03:27:46;17.90;99.90
11848;DHT22;5983;49.966;8.052;2023-06-10T03:30:13;17.90;99.90
11848;DHT22;5983;49.966;8.052;2023-06-10T03:32:41;17.90;99.90
11848;DHT22;5983;49.966;8.052;2023-06-10T03:35:08;17.90;99.90
11848;DHT22;5983;49.966;8.052;2023-06-10T03:37:37;17.80;99.90
11848;DHT22;5983;49.966;8.052;2023-06-10T03:40:05;17.80;99.90
11848;DHT22;5983;49.966;8.052;2023-06-10T03:42:32;17.70;99.90
11848;DHT22;5983;49.966;8.052;2023-06-10T03:45:00;17.70;99.90
11848;DHT22;5983;49.966;8.052;2023-06-10T03:47:33;17.70;99.90
11848;DHT22;5983;49.966;8.052;2023-06-10T03:50:01;17.70;99.90
11848;DHT22;5983;49.966;8.052;2023-06-10T03:52:29;17.60;99.90
11848;DHT22;5983;49.966;8.052;2023-06-10T03:54:57;17.60;99.90
11848;DHT22;5983;49.966;8.052;2023-06-10T03:57:24;17.60;99.90
11848;DHT22;5983;49.966;8.052;2023-06-10T03:59:51;17.50;99.90
11848;DHT22;5983;49.966;8.052;2023-06-10T04:02:18;17.50;99.90
11848;DHT22;5983;49.966;8.052;2023-06-10T04:04:45;17.60;99.90
11848;DHT22;5983;49.966;8.052;2023-06-10T04:07:12;17.60;99.90
11848;DHT22;5983;49.966;8.052;2023-06-10T04:09:39;17.60;99.90
11848;DHT22;5983;49.966;8.052;2023-06-10T04:12:08;17.70;99.90
11848;DHT22;5983;49.966;8.052;2023-06-10T04:14:35;17.70;99.90
11848;DHT22;5983;49.966;8.052;2023-06-10T04:17:04;17.70;99.90
11848;DHT22;5983;49.966;8.052;2023-06-10T04:19:32;17.80;99.90
11848;DHT22;5983;49.966;8.052;2023-06-10T04:22:00;17.80;99.90
11848;DHT22;5983;49.966;8.052;2023-06-10T04:24:28;17.80;99.90
11848;DHT22;5983;49.966;8.052;2023-06-10T04:26:55;17.90;99.90
11848;DHT22;5983;49.966;8.052;2023-06-10T04:29:23;18.00;99.90
11848;DHT22;5983;49.966;8.052;2023-06-10T04:31:50;18.00;99.90
11848;DHT22;5983;49.966;8.052;2023-06-10T04:34:17;18.00;99.90
11848;DHT22;5983;49.966;8.052;2023-06-10T04:36:44;18.10;99.90
11848;DHT22;5983;49.966;8.052;2023-06-10T04:39:11;18.10;99.90
11848;DHT22;5983;49.966;8.052;2023-06-10T04:41:38;18.20;99.90
11848;DHT22;5983;49.966;8.052;2023-06-10T04:44:05;18.30;99.90
11848;DHT22;5983;49.966;8.052;2023-06-10T04:46:33;18.30;99.90
11848;DHT22;5983;49.966;8.052;2023-06-10T04:49:01;18.40;99.90
11848;DHT22;5983;49.966;8.052;2023-06-10T04:51:28;18.40;99.90
11848;DHT22;5983;49.966;8.052;2023-06-10T04:53:55;18.50;99.90
11848;DHT22;5983;49.966;8.052;2023-06-10T04:56:21;18.50;99.90
11848;DHT22;5983;49.966;8.052;2023-06-10T04:58:49;18.60;99.90
11848;DHT22;5983;49.966;8.052;2023-06-10T05:01:16;18.70;99.90
11848;DHT22;5983;49.966;8.052;2023-06-10T05:03:44;18.70;99.90
11848;DHT22;5983;49.966;8.052;2023-06-10T05:06:11;18.80;99.90
11848;DHT22;5983;49.966;8.052;2023-06-10T05:08:38;18.80;99.90
11848;DHT22;5983;49.966;8.052;2023-06-10T05:11:05;18.90;99.90
11848;DHT22;5983;49.966;8.052;2023-06-10T05:13:32;19.00;99.90
11848;DHT22;5983;49.966;8.052;2023-06-10T05:15:59;19.10;99.90
11848;DHT22;5983;49.966;8.052;2023-06-10T05:18:26;19.20;99.90
11848;DHT22;5983;49.966;8.052;2023-06-10T05:20:54;19.30;99.90
11848;DHT22;5983;49.966;8.052;2023-06-10T05:23:21;19.40;99.90
11848;DHT22;5983;49.966;8.052;2023-06-10T05:25:48;19.50;99.90
11848;DHT22;5983;49.966;8.052;2023-06-10T05:28:15;19.60;99.90
11848;DHT22;5983;49.966;8.052;2023-06-10T05:30:42;19.70;99.90
11848;DHT22;5983;49.966;8.052;2023-06-10T05:33:09;19.90;99.90
11848;DHT22;5983;49.966;8.052;2023-06-10T05:35:36;20.00;99.90
11848;DHT22;5983;49.966;8.052;2023-06-10T05:38:04;20.10;99.90
11848;DHT22;5983;49.966;8.052;2023-06-10T05:40:31;20.20;99.90
11848;DHT22;5983;49.966;8.052;2023-06-10T05:42:58;20.30;99.90
11848;DHT22;5983;49.966;8.052;2023-06-10T05:45:25;20.30;99.90
11848;DHT22;5983;49.966;8.052;2023-06-10T05:47:52;20.40;99.90
11848;DHT22;5983;49.966;8.052;2023-06-10T05:50:19;20.50;99.90
11848;DHT22;5983;49.966;8.052;2023-06-10T05:52:46;20.60;99.90
11848;DHT22;5983;49.966;8.052;2023-06-10T05:55:14;20.70;99.90
11848;DHT22;5983;49.966;8.052;2023-06-10T05:57:42;20.80;99.90
11848;DHT22;5983;49.966;8.052;2023-06-10T06:00:09;20.90;99.90
11848;DHT22;5983;49.966;8.052;2023-06-10T06:02:37;21.00;99.90
11848;DHT22;5983;49.966;8.052;2023-06-10T06:05:04;21.10;99.90
11848;DHT22;5983;49.966;8.052;2023-06-10T06:07:32;21.20;99.90
11848;DHT22;5983;49.966;8.052;2023-06-10T06:09:59;21.20;99.90
11848;DHT22;5983;49.966;8.052;2023-06-10T06:12:28;21.30;99.90
11848;DHT22;5983;49.966;8.052;2023-06-10T06:14:55;21.40;99.90
11848;DHT22;5983;49.966;8.052;2023-06-10T06:17:22;21.50;99.90
11848;DHT22;5983;49.966;8.052;2023-06-10T06:19:48;21.50;99.90
11848;DHT22;5983;49.966;8.052;2023-06-10T06:22:15;21.60;99.90
11848;DHT22;5983;49.966;8.052;2023-06-10T06:24:45;21.80;99.90
11848;DHT22;5983;49.966;8.052;2023-06-10T06:27:12;21.90;99.90
11848;DHT22;5983;49.966;8.052;2023-06-10T06:29:41;22.00;99.90
11848;DHT22;5983;49.966;8.052;2023-06-10T06:32:08;22.10;99.90
11848;DHT22;5983;49.966;8.052;2023-06-10T06:34:35;22.30;99.90
11848;DHT22;5983;49.966;8.052;2023-06-10T06:37:02;22.40;99.90
11848;DHT22;5983;49.966;8.052;2023-06-10T06:39:29;22.50;99.90
11848;DHT22;5983;49.966;8.052;2023-06-10T06:41:56;22.60;99.90
11848;DHT22;5983;49.966;8.052;2023-06-10T06:44:23;22.80;99.90
11848;DHT22;5983;49.966;8.052;2023-06-10T06:46:51;22.90;99.90
11848;DHT22;5983;49.966;8.052;2023-06-10T06:49:18;23.00;99.90
11848;DHT22;5983;49.966;8.052;2023-06-10T06:51:45;23.20;99.90
11848;DHT22;5983;49.966;8.052;2023-06-10T06:54:12;23.30;99.90
11848;DHT22;5983;49.966;8.052;2023-06-10T06:56:39;23.50;99.90
11848;DHT22;5983;49.966;8.052;2023-06-10T06:59:06;23.60;99.90
11848;DHT22;5983;49.966;8.052;2023-06-10T07:01:33;23.70;99.90
11848;DHT22;5983;49.966;8.052;2023-06-10T07:04:02;23.80;99.90
11848;DHT22;5983;49.966;8.052;2023-06-10T07:06:29;23.90;99.90
11848;DHT22;5983;49.966;8.052;2023-06-10T07:08:56;24.00;99.90
11848;DHT22;5983;49.966;8.052;2023-06-10T07:11:23;24.10;99.90
11848;DHT22;5983;49.966;8.052;2023-06-10T07:13:50;24.20;99.90
11848;DHT22;5983;49.966;8.052;2023-06-10T07:16:17;24.30;99.90
11848;DHT22;5983;49.966;8.052;2023-06-10T07:18:46;24.50;99.90
11848;DHT22;5983;49.966;8.052;2023-06-10T07:21:14;24.50;99.90
11848;DHT22;5983;49.966;8.052;2023-06-10T07:23:42;24.60;99.90
11848;DHT22;5983;49.966;8.052;2023-06-10T07:26:10;24.70;99.90
11848;DHT22;5983;49.966;8.052;2023-06-10T07:28:39;24.80;99.90
11848;DHT22;5983;49.966;8.052;2023-06-10T07:31:07;24.90;99.90
11848;DHT22;5983;49.966;8.052;2023-06-10T07:33:34;25.00;99.90
11848;DHT22;5983;49.966;8.052;2023-06-10T07:36:02;25.00;99.90
11848;DHT22;5983;49.966;8.052;2023-06-10T07:38:31;25.10;99.90
11848;DHT22;5983;49.966;8.052;2023-06-10T07:40:58;25.20;99.90
11848;DHT22;5983;49.966;8.052;2023-06-10T07:43:25;25.30;99.90
11848;DHT22;5983;49.966;8.052;2023-06-10T07:45:52;25.40;99.90
11848;DHT22;5983;49.966;8.052;2023-06-10T07:48:19;25.50;99.90
11848;DHT22;5983;49.966;8.052;2023-06-10T07:50:46;25.60;99.90
11848;DHT22;5983;49.966;8.052;2023-06-10T07:53:13;25.70;99.40
11848;DHT22;5983;49.966;8.052;2023-06-10T07:55:41;25.80;99.40
11848;DHT22;5983;49.966;8.052;2023-06-10T07:58:08;25.90;97.70
11848;DHT22;5983;49.966;8.052;2023-06-10T08:00:35;25.90;97.20
11848;DHT22;5983;49.966;8.052;2023-06-10T08:03:02;25.90;97.00
11848;DHT22;5983;49.966;8.052;2023-06-10T08:05:29;26.00;96.70
11848;DHT22;5983;49.966;8.052;2023-06-10T08:07:57;26.00;96.90
11848;DHT22;5983;49.966;8.052;2023-06-10T08:10:24;26.10;97.60
11848;DHT22;5983;49.966;8.052;2023-06-10T08:12:52;26.20;97.10
11848;DHT22;5983;49.966;8.052;2023-06-10T08:15:19;26.30;96.60
11848;DHT22;5983;49.966;8.052;2023-06-10T08:17:46;26.40;96.40
11848;DHT22;5983;49.966;8.052;2023-06-10T08:20:13;26.50;97.00
11848;DHT22;5983;49.966;8.052;2023-06-10T08:22:40;26.60;96.90
11848;DHT22;5983;49.966;8.052;2023-06-10T08:25:08;26.70;96.40
11848;DHT22;5983;49.966;8.052;2023-06-10T08:27:36;26.90;96.10
11848;DHT22;5983;49.966;8.052;2023-06-10T08:30:06;26.90;94.90
11848;DHT22;5983;49.966;8.052;2023-06-10T08:32:35;27.00;94.40
11848;DHT22;5983;49.966;8.052;2023-06-10T08:35:02;27.10;93.30
11848;DHT22;5983;49.966;8.052;2023-06-10T08:37:30;27.10;92.60
11848;DHT22;5983;49.966;8.052;2023-06-10T08:39:57;27.10;92.70
11848;DHT22;5983;49.966;8.052;2023-06-10T08:42:28;27.20;93.50
11848;DHT22;5983;49.966;8.052;2023-06-10T08:45:01;27.40;93.30
11848;DHT22;5983;49.966;8.052;2023-06-10T08:47:32;27.50;93.10
11848;DHT22;5983;49.966;8.052;2023-06-10T08:50:03;27.60;91.10
11848;DHT22;5983;49.966;8.052;2023-06-10T08:52:35;27.60;90.20
11848;DHT22;5983;49.966;8.052;2023-06-10T08:55:05;27.60;90.10
11848;DHT22;5983;49.966;8.052;2023-06-10T08:57:37;27.80;90.60
11848;DHT22;5983;49.966;8.052;2023-06-10T09:00:07;27.90;90.60
11848;DHT22;5983;49.966;8.052;2023-06-10T09:02:36;28.00;90.10
11848;DHT22;5983;49.966;8.052;2023-06-10T09:05:03;28.00;90.10
11848;DHT22;5983;49.966;8.052;2023-06-10T09:07:31;28.20;90.10
11848;DHT22;5983;49.966;8.052;2023-06-10T09:10:01;28.20;87.00
11848;DHT22;5983;49.966;8.052;2023-06-10T09:12:32;28.30;88.50
11848;DHT22;5983;49.966;8.052;2023-06-10T09:14:59;28.40;85.20
11848;DHT22;5983;49.966;8.052;2023-06-10T09:17:28;28.50;85.80
11848;DHT22;5983;49.966;8.052;2023-06-10T09:19:56;28.50;85.30
11848;DHT22;5983;49.966;8.052;2023-06-10T09:22:23;28.60;85.70
11848;DHT22;5983;49.966;8.052;2023-06-10T09:24:52;28.70;86.10
11848;DHT22;5983;49.966;8.052;2023-06-10T09:27:30;28.70;85.40
11848;DHT22;5983;49.966;8.052;2023-06-10T09:29:57;28.90;83.50
11848;DHT22;5983;49.966;8.052;2023-06-10T09:32:24;28.90;83.80
11848;DHT22;5983;49.966;8.052;2023-06-10T09:34:54;29.00;81.80
11848;DHT22;5983;49.966;8.052;2023-06-10T09:37:21;29.10;80.30
11848;DHT22;5983;49.966;8.052;2023-06-10T09:40:13;29.10;78.20
11848;DHT22;5983;49.966;8.052;2023-06-10T09:42:40;29.10;76.80
11848;DHT22;5983;49.966;8.052;2023-06-10T09:45:07;29.20;75.60
11848;DHT22;5983;49.966;8.052;2023-06-10T09:47:35;29.20;75.20
11848;DHT22;5983;49.966;8.052;2023-06-10T09:50:03;29.10;75.20
11848;DHT22;5983;49.966;8.052;2023-06-10T09:52:31;29.00;74.30
11848;DHT22;5983;49.966;8.052;2023-06-10T09:55:02;29.00;75.90
11848;DHT22;5983;49.966;8.052;2023-06-10T09:57:31;29.10;77.40
11848;DHT22;5983;49.966;8.052;2023-06-10T09:59:59;29.20;77.00
11848;DHT22;5983;49.966;8.052;2023-06-10T10:02:31;29.40;76.10
11848;DHT22;5983;49.966;8.052;2023-06-10T10:05:03;29.50;76.90
11848;DHT22;5983;49.966;8.052;2023-06-10T10:07:32;29.60;74.50
11848;DHT22;5983;49.966;8.052;2023-06-10T10:09:58;29.50;74.10
11848;DHT22;5983;49.966;8.052;2023-06-10T10:12:26;29.50;74.40
11848;DHT22;5983;49.966;8.052;2023-06-10T10:14:55;29.50;76.30
11848;DHT22;5983;49.966;8.052;2023-06-10T10:17:23;29.60;75.40
11848;DHT22;5983;49.966;8.052;2023-06-10T10:19:54;29.70;72.90
11848;DHT22;5983;49.966;8.052;2023-06-10T10:22:33;29.70;71.80
11848;DHT22;5983;49.966;8.052;2023-06-10T10:25:10;29.60;72.40
11848;DHT22;5983;49.966;8.052;2023-06-10T10:27:43;29.60;72.80
11848;DHT22;5983;49.966;8.052;2023-06-10T10:30:14;29.80;74.00
11848;DHT22;5983;49.966;8.052;2023-06-10T10:32:51;30.00;71.30
11848;DHT22;5983;49.966;8.052;2023-06-10T10:35:22;30.00;70.90
11848;DHT22;5983;49.966;8.052;2023-06-10T10:37:52;30.00;70.30
11848;DHT22;5983;49.966;8.052;2023-06-10T10:40:20;29.90;70.70
11848;DHT22;5983;49.966;8.052;2023-06-10T10:42:49;30.00;72.00
11848;DHT22;5983;49.966;8.052;2023-06-10T10:45:17;30.00;72.50
11848;DHT22;5983;49.966;8.052;2023-06-10T10:47:45;30.10;71.00
11848;DHT22;5983;49.966;8.052;2023-06-10T10:50:14;30.20;69.70
11848;DHT22;5983;49.966;8.052;2023-06-10T10:52:54;30.20;70.40
11848;DHT22;5983;49.966;8.052;2023-06-10T10:55:22;30.30;70.10
11848;DHT22;5983;49.966;8.052;2023-06-10T10:57:57;30.40;70.10
11848;DHT22;5983;49.966;8.052;2023-06-10T11:00:27;30.50;70.90
11848;DHT22;5983;49.966;8.052;2023-06-10T11:02:58;30.50;69.20
11848;DHT22;5983;49.966;8.052;2023-06-10T11:05:37;30.60;67.20
11848;DHT22;5983;49.966;8.052;2023-06-10T11:08:08;30.70;68.50
11848;DHT22;5983;49.966;8.052;2023-06-10T11:10:36;30.80;67.90
11848;DHT22;5983;49.966;8.052;2023-06-10T11:13:08;30.90;68.60
11848;DHT22;5983;49.966;8.052;2023-06-10T11:15:40;31.10;68.50
11848;DHT22;5983;49.966;8.052;2023-06-10T11:18:15;31.20;66.20
11848;DHT22;5983;49.966;8.052;2023-06-10T11:20:54;31.20;65.30
11848;DHT22;5983;49.966;8.052;2023-06-10T11:23:41;31.10;64.90
11848;DHT22;5983;49.966;8.052;2023-06-10T11:26:13;31.00;64.00
11848;DHT22;5983;49.966;8.052;2023-06-10T11:29:08;31.10;65.60
11848;DHT22;5983;49.966;8.052;2023-06-10T11:31:41;31.30;66.20
11848;DHT22;5983;49.966;8.052;2023-06-10T11:34:13;31.40;64.60
11848;DHT22;5983;49.966;8.052;2023-06-10T11:36:42;31.60;64.70
11848;DHT22;5983;49.966;8.052;2023-06-10T11:39:12;31.70;65.30
11848;DHT22;5983;49.966;8.052;2023-06-10T11:41:40;31.80;61.70
11848;DHT22;5983;49.966;8.052;2023-06-10T11:44:11;31.70;62.30
11848;DHT22;5983;49.966;8.052;2023-06-10T11:46:39;31.60;62.30
11848;DHT22;5983;49.966;8.052;2023-06-10T11:49:08;31.50;63.90
11848;DHT22;5983;49.966;8.052;2023-06-10T11:51:36;31.40;62.40
11848;DHT22;5983;49.966;8.052;2023-06-10T11:54:05;31.20;63.10
11848;DHT22;5983;49.966;8.052;2023-06-10T11:56:36;31.30;64.30
11848;DHT22;5983;49.966;8.052;2023-06-10T11:59:04;31.50;61.30
11848;DHT22;5983;49.966;8.052;2023-06-10T12:01:33;31.50;62.80
11848;DHT22;5983;49.966;8.052;2023-06-10T12:04:03;31.60;63.60
11848;DHT22;5983;49.966;8.052;2023-06-10T12:06:39;31.80;63.70
11848;DHT22;5983;49.966;8.052;2023-06-10T12:09:11;31.80;62.40
11848;DHT22;5983;49.966;8.052;2023-06-10T12:11:42;31.80;61.50
11848;DHT22;5983;49.966;8.052;2023-06-10T12:14:10;31.60;61.50
11848;DHT22;5983;49.966;8.052;2023-06-10T12:16:37;31.70;62.90
11848;DHT22;5983;49.966;8.052;2023-06-10T12:19:05;31.80;59.80
11848;DHT22;5983;49.966;8.052;2023-06-10T12:21:33;31.70;59.90
11848;DHT22;5983;49.966;8.052;2023-06-10T12:24:06;31.60;60.30
11848;DHT22;5983;49.966;8.052;2023-06-10T12:26:36;31.70;61.30
11848;DHT22;5983;49.966;8.052;2023-06-10T12:29:15;31.80;62.30
11848;DHT22;5983;49.966;8.052;2023-06-10T12:31:55;31.80;62.70
11848;DHT22;5983;49.966;8.052;2023-06-10T12:34:30;31.80;61.80
11848;DHT22;5983;49.966;8.052;2023-06-10T12:36:59;31.90;61.80
11848;DHT22;5983;49.966;8.052;2023-06-10T12:39:26;31.90;61.70
11848;DHT22;5983;49.966;8.052;2023-06-10T12:41:54;32.00;61.30
11848;DHT22;5983;49.966;8.052;2023-06-10T12:44:33;32.00;62.60
11848;DHT22;5983;49.966;8.052;2023-06-10T12:47:06;32.00;60.70
11848;DHT22;5983;49.966;8.052;2023-06-10T12:49:35;32.00;59.40
11848;DHT22;5983;49.966;8.052;2023-06-10T12:52:03;32.00;59.70
11848;DHT22;5983;49.966;8.052;2023-06-10T12:54:30;31.80;59.70
11848;DHT22;5983;49.966;8.052;2023-06-10T12:56:57;31.80;58.40
11848;DHT22;5983;49.966;8.052;2023-06-10T12:59:24;31.60;59.50
11848;DHT22;5983;49.966;8.052;2023-06-10T13:01:54;31.60;58.60
11848;DHT22;5983;49.966;8.052;2023-06-10T13:04:21;31.60;57.70
11848;DHT22;5983;49.966;8.052;2023-06-10T13:06:48;31.60;57.50
11848;DHT22;5983;49.966;8.052;2023-06-10T13:09:16;31.60;57.20
11848;DHT22;5983;49.966;8.052;2023-06-10T13:11:43;31.70;58.30
11848;DHT22;5983;49.966;8.052;2023-06-10T13:14:10;31.70;56.80
11848;DHT22;5983;49.966;8.052;2023-06-10T13:16:38;31.60;57.00
11848;DHT22;5983;49.966;8.052;2023-06-10T13:19:06;31.50;58.40
11848;DHT22;5983;49.966;8.052;2023-06-10T13:21:33;31.50;56.80
11848;DHT22;5983;49.966;8.052;2023-06-10T13:24:00;31.30;57.50
11848;DHT22;5983;49.966;8.052;2023-06-10T13:26:28;31.10;57.40
11848;DHT22;5983;49.966;8.052;2023-06-10T13:28:56;31.00;57.30
11848;DHT22;5983;49.966;8.052;2023-06-10T13:31:23;30.80;56.90
11848;DHT22;5983;49.966;8.052;2023-06-10T13:33:50;30.60;57.10
11848;DHT22;5983;49.966;8.052;2023-06-10T13:36:18;30.60;57.90
11848;DHT22;5983;49.966;8.052;2023-06-10T13:38:45;30.50;57.80
11848;DHT22;5983;49.966;8.052;2023-06-10T13:41:13;30.60;58.10
11848;DHT22;5983;49.966;8.052;2023-06-10T13:43:40;30.60;58.20
11848;DHT22;5983;49.966;8.052;2023-06-10T13:46:07;30.60;57.90
11848;DHT22;5983;49.966;8.052;2023-06-10T13:48:34;30.50;57.70
11848;DHT22;5983;49.966;8.052;2023-06-10T13:51:01;30.40;57.70
11848;DHT22;5983;49.966;8.052;2023-06-10T13:53:29;30.30;57.80
11848;DHT22;5983;49.966;8.052;2023-06-10T13:55:56;30.40;58.40
11848;DHT22;5983;49.966;8.052;2023-06-10T13:58:23;30.60;59.00
11848;DHT22;5983;49.966;8.052;2023-06-10T14:00:50;30.80;58.40
11848;DHT22;5983;49.966;8.052;2023-06-10T14:03:17;30.90;58.00
11848;DHT22;5983;49.966;8.052;2023-06-10T14:05:44;31.00;57.50
11848;DHT22;5983;49.966;8.052;2023-06-10T14:08:11;31.10;57.30
11848;DHT22;5983;49.966;8.052;2023-06-10T14:10:40;31.20;56.80
11848;DHT22;5983;49.966;8.052;2023-06-10T14:13:07;31.30;55.60
11848;DHT22;5983;49.966;8.052;2023-06-10T14:15:34;31.40;56.20
11848;DHT22;5983;49.966;8.052;2023-06-10T14:18:01;31.40;57.30
11848;DHT22;5983;49.966;8.052;2023-06-10T14:20:28;31.50;56.90
11848;DHT22;5983;49.966;8.052;2023-06-10T14:22:57;31.50;55.30
11848;DHT22;5983;49.966;8.052;2023-06-10T14:25:24;31.50;56.10
11848;DHT22;5983;49.966;8.052;2023-06-10T14:27:53;31.50;56.50
11848;DHT22;5983;49.966;8.052;2023-06-10T14:30:20;31.40;57.30
11848;DHT22;5983;49.966;8.052;2023-06-10T14:32:47;31.40;57.10
11848;DHT22;5983;49.966;8.052;2023-06-10T14:35:14;31.40;57.40
11848;DHT22;5983;49.966;8.052;2023-06-10T14:37:41;31.50;56.70
11848;DHT22;5983;49.966;8.052;2023-06-10T14:40:09;31.50;57.00
11848;DHT22;5983;49.966;8.052;2023-06-10T14:42:36;31.40;57.50
11848;DHT22;5983;49.966;8.052;2023-06-10T14:45:06;31.50;56.00
11848;DHT22;5983;49.966;8.052;2023-06-10T14:47:35;31.40;56.00
11848;DHT22;5983;49.966;8.052;2023-06-10T14:50:02;31.50;55.00
11848;DHT22;5983;49.966;8.052;2023-06-10T14:52:30;31.30;55.10
11848;DHT22;5983;49.966;8.052;2023-06-10T14:54:56;31.20;55.00
11848;DHT22;5983;49.966;8.052;2023-06-10T14:57:23;31.20;55.20
11848;DHT22;5983;49.966;8.052;2023-06-10T14:59:50;31.20;55.40
11848;DHT22;5983;49.966;8.052;2023-06-10T15:02:19;31.10;55.20
11848;DHT22;5983;49.966;8.052;2023-06-10T15:04:46;31.20;56.60
11848;DHT22;5983;49.966;8.052;2023-06-10T15:07:13;31.20;55.40
11848;DHT22;5983;49.966;8.052;2023-06-10T15:09:40;31.30;56.00
11848;DHT22;5983;49.966;8.052;2023-06-10T15:12:08;31.40;54.70
11848;DHT22;5983;49.966;8.052;2023-06-10T15:14:36;31.30;54.80
11848;DHT22;5983;49.966;8.052;2023-06-10T15:17:03;31.10;55.10
11848;DHT22;5983;49.966;8.052;2023-06-10T15:19:32;31.00;55.80
11848;DHT22;5983;49.966;8.052;2023-06-10T15:21:58;30.90;56.20
11848;DHT22;5983;49.966;8.052;2023-06-10T15:24:25;30.80;57.10
11848;DHT22;5983;49.966;8.052;2023-06-10T15:26:52;30.80;57.60
11848;DHT22;5983;49.966;8.052;2023-06-10T15:29:20;30.90;57.90
11848;DHT22;5983;49.966;8.052;2023-06-10T15:31:46;30.90;57.60
11848;DHT22;5983;49.966;8.052;2023-06-10T15:34:13;31.00;58.00
11848;DHT22;5983;49.966;8.052;2023-06-10T15:36:42;30.90;57.20
11848;DHT22;5983;49.966;8.052;2023-06-10T15:39:09;30.80;57.80
11848;DHT22;5983;49.966;8.052;2023-06-10T15:41:36;30.50;57.80
11848;DHT22;5983;49.966;8.052;2023-06-10T15:44:03;30.30;58.30
11848;DHT22;5983;49.966;8.052;2023-06-10T15:46:30;30.10;58.50
11848;DHT22;5983;49.966;8.052;2023-06-10T15:48:59;29.90;58.70
11848;DHT22;5983;49.966;8.052;2023-06-10T15:51:26;29.70;59.10
11848;DHT22;5983;49.966;8.052;2023-06-10T15:53:55;29.60;59.60